sensor_id;sensor_type;location;lat;lon;timestamp;P1;durP1;ratioP1;P2;durP2;ratioP2
12947;SDS011;6539;49.476;8.484;2022-08-19T00:01:53;15.70;;;14.13;;
12947;SDS011;6539;49.476;8.484;2022-08-19T00:04:23;16.27;;;14.70;;
12947;SDS011;6539;49.476;8.484;2022-08-19T00:06:53;17.17;;;15.57;;
12947;SDS011;6539;49.476;8.484;2022-08-19T00:09:20;17.70;;;15.10;;
12947;SDS011;6539;49.476;8.484;2022-08-19T00:11:48;16.20;;;14.43;;
12947;SDS011;6539;49.476;8.484;2022-08-19T00:14:17;15.50;;;13.97;;
12947;SDS011;6539;49.476;8.484;2022-08-19T00:16:50;16.93;;;14.60;;
12947;SDS011;6539;49.476;8.484;2022-08-19T00:19:19;16.13;;;14.43;;
12947;SDS011;6539;49.476;8.484;2022-08-19T00:21:46;16.50;;;14.77;;
12947;SDS011;6539;49.476;8.484;2022-08-19T00:24:12;16.93;;;15.03;;
12947;SDS011;6539;49.476;8.484;2022-08-19T00:26:40;15.73;;;14.23;;
12947;SDS011;6539;49.476;8.484;2022-08-19T00:29:10;17.47;;;14.83;;
12947;SDS011;6539;49.476;8.484;2022-08-19T00:31:39;17.33;;;15.67;;
12947;SDS011;6539;49.476;8.484;2022-08-19T00:34:07;15.60;;;14.10;;
12947;SDS011;6539;49.476;8.484;2022-08-19T00:36:34;16.13;;;14.53;;
12947;SDS011;6539;49.476;8.484;2022-08-19T00:39:02;17.33;;;15.53;;
12947;SDS011;6539;49.476;8.484;2022-08-19T00:41:31;15.27;;;13.67;;
12947;SDS011;6539;49.476;8.484;2022-08-19T00:44:04;17.23;;;15.00;;
12947;SDS011;6539;49.476;8.484;2022-08-19T00:46:31;17.23;;;15.52;;
12947;SDS011;6539;49.476;8.484;2022-08-19T00:49:03;16.57;;;14.97;;
12947;SDS011;6539;49.476;8.484;2022-08-19T00:51:41;17.47;;;15.57;;
12947;SDS011;6539;49.476;8.484;2022-08-19T00:54:15;16.30;;;14.75;;
12947;SDS011;6539;49.476;8.484;2022-08-19T00:56:44;15.93;;;14.33;;
12947;SDS011;6539;49.476;8.484;2022-08-19T00:59:11;15.23;;;13.60;;
12947;SDS011;6539;49.476;8.484;2022-08-19T01:01:41;15.30;;;13.80;;
12947;SDS011;6539;49.476;8.484;2022-08-19T01:04:12;16.47;;;14.87;;
12947;SDS011;6539;49.476;8.484;2022-08-19T01:06:41;17.05;;;15.32;;
12947;SDS011;6539;49.476;8.484;2022-08-19T01:09:07;16.53;;;14.90;;
12947;SDS011;6539;49.476;8.484;2022-08-19T01:11:34;15.03;;;13.53;;
12947;SDS011;6539;49.476;8.484;2022-08-19T01:14:08;15.17;;;13.73;;
12947;SDS011;6539;49.476;8.484;2022-08-19T01:16:35;15.77;;;14.23;;
12947;SDS011;6539;49.476;8.484;2022-08-19T01:19:33;16.87;;;14.83;;
12947;SDS011;6539;49.476;8.484;2022-08-19T01:22:08;16.10;;;14.50;;
12947;SDS011;6539;49.476;8.484;2022-08-19T01:24:48;16.23;;;14.37;;
12947;SDS011;6539;49.476;8.484;2022-08-19T01:27:16;16.13;;;14.63;;
12947;SDS011;6539;49.476;8.484;2022-08-19T01:29:44;15.25;;;13.65;;
12947;SDS011;6539;49.476;8.484;2022-08-19T01:32:11;17.70;;;15.80;;
12947;SDS011;6539;49.476;8.484;2022-08-19T01:34:44;15.07;;;13.70;;
12947;SDS011;6539;49.476;8.484;2022-08-19T01:37:12;18.33;;;16.50;;
12947;SDS011;6539;49.476;8.484;2022-08-19T01:39:41;15.97;;;14.27;;
12947;SDS011;6539;49.476;8.484;2022-08-19T01:42:08;17.93;;;16.13;;
12947;SDS011;6539;49.476;8.484;2022-08-19T01:44:37;16.95;;;15.25;;
12947;SDS011;6539;49.476;8.484;2022-08-19T01:47:08;19.45;;;16.98;;
12947;SDS011;6539;49.476;8.484;2022-08-19T01:49:34;16.47;;;14.97;;
12947;SDS011;6539;49.476;8.484;2022-08-19T01:52:04;16.53;;;14.77;;
12947;SDS011;6539;49.476;8.484;2022-08-19T01:54:31;15.10;;;13.50;;
12947;SDS011;6539;49.476;8.484;2022-08-19T01:57:06;17.37;;;15.73;;
12947;SDS011;6539;49.476;8.484;2022-08-19T01:59:37;16.57;;;14.83;;
12947;SDS011;6539;49.476;8.484;2022-08-19T02:02:06;19.23;;;17.27;;
12947;SDS011;6539;49.476;8.484;2022-08-19T02:04:35;16.60;;;14.90;;
12947;SDS011;6539;49.476;8.484;2022-08-19T02:07:03;17.03;;;15.23;;
12947;SDS011;6539;49.476;8.484;2022-08-19T02:09:31;17.33;;;15.63;;
12947;SDS011;6539;49.476;8.484;2022-08-19T02:11:57;14.63;;;13.30;;
12947;SDS011;6539;49.476;8.484;2022-08-19T02:14:23;18.57;;;16.50;;
12947;SDS011;6539;49.476;8.484;2022-08-19T02:16:49;21.47;;;16.50;;
12947;SDS011;6539;49.476;8.484;2022-08-19T02:19:17;18.27;;;16.40;;
12947;SDS011;6539;49.476;8.484;2022-08-19T02:21:43;20.50;;;17.57;;
12947;SDS011;6539;49.476;8.484;2022-08-19T02:24:12;17.97;;;16.13;;
12947;SDS011;6539;49.476;8.484;2022-08-19T02:26:40;20.60;;;18.50;;
12947;SDS011;6539;49.476;8.484;2022-08-19T02:29:08;19.00;;;17.10;;
12947;SDS011;6539;49.476;8.484;2022-08-19T02:31:36;21.60;;;18.10;;
12947;SDS011;6539;49.476;8.484;2022-08-19T02:34:04;20.05;;;17.90;;
12947;SDS011;6539;49.476;8.484;2022-08-19T02:36:30;17.57;;;15.77;;
12947;SDS011;6539;49.476;8.484;2022-08-19T02:38:58;18.63;;;16.77;;
12947;SDS011;6539;49.476;8.484;2022-08-19T02:41:26;18.97;;;16.93;;
12947;SDS011;6539;49.476;8.484;2022-08-19T02:44:00;18.37;;;16.57;;
12947;SDS011;6539;49.476;8.484;2022-08-19T02:46:32;19.20;;;16.67;;
12947;SDS011;6539;49.476;8.484;2022-08-19T02:49:05;19.53;;;17.47;;
12947;SDS011;6539;49.476;8.484;2022-08-19T02:51:36;15.90;;;14.37;;
12947;SDS011;6539;49.476;8.484;2022-08-19T02:54:09;18.77;;;16.53;;
12947;SDS011;6539;49.476;8.484;2022-08-19T02:56:37;20.30;;;18.13;;
12947;SDS011;6539;49.476;8.484;2022-08-19T02:59:06;19.37;;;17.33;;
12947;SDS011;6539;49.476;8.484;2022-08-19T03:01:34;20.40;;;17.30;;
12947;SDS011;6539;49.476;8.484;2022-08-19T03:04:05;16.07;;;14.47;;
12947;SDS011;6539;49.476;8.484;2022-08-19T03:06:37;17.87;;;16.00;;
12947;SDS011;6539;49.476;8.484;2022-08-19T03:09:06;19.73;;;17.57;;
12947;SDS011;6539;49.476;8.484;2022-08-19T03:11:37;16.97;;;15.27;;
12947;SDS011;6539;49.476;8.484;2022-08-19T03:14:05;17.53;;;15.83;;
12947;SDS011;6539;49.476;8.484;2022-08-19T03:16:34;17.40;;;15.63;;
12947;SDS011;6539;49.476;8.484;2022-08-19T03:19:11;15.87;;;14.30;;
12947;SDS011;6539;49.476;8.484;2022-08-19T03:21:44;16.60;;;14.83;;
12947;SDS011;6539;49.476;8.484;2022-08-19T03:24:15;15.90;;;14.40;;
12947;SDS011;6539;49.476;8.484;2022-08-19T03:26:45;17.57;;;15.80;;
12947;SDS011;6539;49.476;8.484;2022-08-19T03:29:18;17.63;;;15.73;;
12947;SDS011;6539;49.476;8.484;2022-08-19T03:31:46;16.93;;;15.23;;
12947;SDS011;6539;49.476;8.484;2022-08-19T03:34:18;18.43;;;15.13;;
12947;SDS011;6539;49.476;8.484;2022-08-19T03:36:47;20.23;;;16.27;;
12947;SDS011;6539;49.476;8.484;2022-08-19T03:39:13;15.20;;;13.60;;
12947;SDS011;6539;49.476;8.484;2022-08-19T03:41:44;18.73;;;16.73;;
12947;SDS011;6539;49.476;8.484;2022-08-19T03:44:13;15.27;;;13.77;;
12947;SDS011;6539;49.476;8.484;2022-08-19T03:46:42;18.43;;;16.63;;
12947;SDS011;6539;49.476;8.484;2022-08-19T03:49:11;17.07;;;15.27;;
12947;SDS011;6539;49.476;8.484;2022-08-19T03:51:38;18.70;;;16.00;;
12947;SDS011;6539;49.476;8.484;2022-08-19T03:54:08;19.43;;;17.43;;
12947;SDS011;6539;49.476;8.484;2022-08-19T03:56:39;16.67;;;14.87;;
12947;SDS011;6539;49.476;8.484;2022-08-19T03:59:10;18.17;;;16.37;;
12947;SDS011;6539;49.476;8.484;2022-08-19T04:01:50;20.17;;;18.03;;
12947;SDS011;6539;49.476;8.484;2022-08-19T04:04:25;16.57;;;14.80;;
12947;SDS011;6539;49.476;8.484;2022-08-19T04:06:57;15.97;;;14.40;;
12947;SDS011;6539;49.476;8.484;2022-08-19T04:09:28;15.93;;;14.43;;
12947;SDS011;6539;49.476;8.484;2022-08-19T04:11:57;15.30;;;13.80;;
12947;SDS011;6539;49.476;8.484;2022-08-19T04:14:25;15.30;;;13.80;;
12947;SDS011;6539;49.476;8.484;2022-08-19T04:16:55;17.03;;;15.07;;
12947;SDS011;6539;49.476;8.484;2022-08-19T04:19:22;17.07;;;15.27;;
12947;SDS011;6539;49.476;8.484;2022-08-19T04:21:49;17.50;;;15.67;;
12947;SDS011;6539;49.476;8.484;2022-08-19T04:24:21;15.93;;;14.27;;
12947;SDS011;6539;49.476;8.484;2022-08-19T04:26:48;15.17;;;13.63;;
12947;SDS011;6539;49.476;8.484;2022-08-19T04:29:18;14.87;;;12.60;;
12947;SDS011;6539;49.476;8.484;2022-08-19T04:31:49;15.73;;;14.20;;
12947;SDS011;6539;49.476;8.484;2022-08-19T04:34:19;16.53;;;14.93;;
12947;SDS011;6539;49.476;8.484;2022-08-19T04:36:49;15.67;;;13.80;;
12947;SDS011;6539;49.476;8.484;2022-08-19T04:39:20;13.90;;;12.53;;
12947;SDS011;6539;49.476;8.484;2022-08-19T04:42:14;15.67;;;14.07;;
12947;SDS011;6539;49.476;8.484;2022-08-19T04:45:02;14.70;;;13.20;;
12947;SDS011;6539;49.476;8.484;2022-08-19T04:47:32;15.63;;;14.00;;
12947;SDS011;6539;49.476;8.484;2022-08-19T04:49:58;13.80;;;12.50;;
12947;SDS011;6539;49.476;8.484;2022-08-19T04:52:26;14.10;;;12.80;;
12947;SDS011;6539;49.476;8.484;2022-08-19T04:54:54;14.70;;;13.30;;
12947;SDS011;6539;49.476;8.484;2022-08-19T04:57:20;14.97;;;12.03;;
12947;SDS011;6539;49.476;8.484;2022-08-19T04:59:46;13.67;;;12.27;;
12947;SDS011;6539;49.476;8.484;2022-08-19T05:02:14;15.93;;;14.33;;
12947;SDS011;6539;49.476;8.484;2022-08-19T05:04:40;14.00;;;12.13;;
12947;SDS011;6539;49.476;8.484;2022-08-19T05:07:08;13.60;;;12.27;;
12947;SDS011;6539;49.476;8.484;2022-08-19T05:09:36;14.37;;;12.97;;
12947;SDS011;6539;49.476;8.484;2022-08-19T05:12:03;14.07;;;12.67;;
12947;SDS011;6539;49.476;8.484;2022-08-19T05:14:33;14.87;;;13.43;;
12947;SDS011;6539;49.476;8.484;2022-08-19T05:17:03;13.83;;;11.73;;
12947;SDS011;6539;49.476;8.484;2022-08-19T05:19:32;13.60;;;12.27;;
12947;SDS011;6539;49.476;8.484;2022-08-19T05:22:21;14.63;;;12.40;;
12947;SDS011;6539;49.476;8.484;2022-08-19T05:25:06;14.47;;;13.03;;
12947;SDS011;6539;49.476;8.484;2022-08-19T05:27:37;13.10;;;11.77;;
12947;SDS011;6539;49.476;8.484;2022-08-19T05:30:03;14.70;;;13.10;;
12947;SDS011;6539;49.476;8.484;2022-08-19T05:32:32;14.67;;;13.17;;
12947;SDS011;6539;49.476;8.484;2022-08-19T05:34:58;13.80;;;12.50;;
12947;SDS011;6539;49.476;8.484;2022-08-19T05:37:27;15.43;;;13.83;;
12947;SDS011;6539;49.476;8.484;2022-08-19T05:39:52;13.47;;;12.00;;
12947;SDS011;6539;49.476;8.484;2022-08-19T05:42:19;16.03;;;13.70;;
12947;SDS011;6539;49.476;8.484;2022-08-19T05:44:47;12.67;;;11.50;;
12947;SDS011;6539;49.476;8.484;2022-08-19T05:47:16;14.93;;;12.90;;
12947;SDS011;6539;49.476;8.484;2022-08-19T05:49:47;14.10;;;12.70;;
12947;SDS011;6539;49.476;8.484;2022-08-19T05:52:15;15.37;;;12.03;;
12947;SDS011;6539;49.476;8.484;2022-08-19T05:54:44;15.07;;;12.30;;
12947;SDS011;6539;49.476;8.484;2022-08-19T05:57:12;14.43;;;11.50;;
12947;SDS011;6539;49.476;8.484;2022-08-19T05:59:39;10.53;;;9.43;;
12947;SDS011;6539;49.476;8.484;2022-08-19T06:02:05;13.98;;;12.52;;
12947;SDS011;6539;49.476;8.484;2022-08-19T06:04:34;12.40;;;11.03;;
12947;SDS011;6539;49.476;8.484;2022-08-19T06:07:02;12.25;;;10.88;;
12947;SDS011;6539;49.476;8.484;2022-08-19T06:09:29;16.02;;;11.10;;
12947;SDS011;6539;49.476;8.484;2022-08-19T06:11:58;11.25;;;10.18;;
12947;SDS011;6539;49.476;8.484;2022-08-19T06:14:26;13.90;;;11.75;;
12947;SDS011;6539;49.476;8.484;2022-08-19T06:16:55;13.80;;;12.17;;
12947;SDS011;6539;49.476;8.484;2022-08-19T06:19:29;12.10;;;11.00;;
12947;SDS011;6539;49.476;8.484;2022-08-19T06:21:56;14.65;;;12.98;;
12947;SDS011;6539;49.476;8.484;2022-08-19T06:24:25;10.23;;;9.18;;
12947;SDS011;6539;49.476;8.484;2022-08-19T06:26:55;11.52;;;10.13;;
12947;SDS011;6539;49.476;8.484;2022-08-19T06:29:23;13.48;;;9.93;;
12947;SDS011;6539;49.476;8.484;2022-08-19T06:31:54;12.00;;;10.80;;
12947;SDS011;6539;49.476;8.484;2022-08-19T06:34:23;16.25;;;11.98;;
12947;SDS011;6539;49.476;8.484;2022-08-19T06:36:52;13.07;;;11.77;;
12947;SDS011;6539;49.476;8.484;2022-08-19T06:39:21;11.90;;;10.57;;
12947;SDS011;6539;49.476;8.484;2022-08-19T06:41:53;13.87;;;11.00;;
12947;SDS011;6539;49.476;8.484;2022-08-19T06:44:25;10.60;;;9.60;;
12947;SDS011;6539;49.476;8.484;2022-08-19T06:47:00;13.60;;;11.20;;
12947;SDS011;6539;49.476;8.484;2022-08-19T06:49:29;12.23;;;10.75;;
12947;SDS011;6539;49.476;8.484;2022-08-19T06:51:56;13.77;;;10.32;;
12947;SDS011;6539;49.476;8.484;2022-08-19T06:54:23;16.20;;;10.57;;
12947;SDS011;6539;49.476;8.484;2022-08-19T06:56:52;13.13;;;10.27;;
12947;SDS011;6539;49.476;8.484;2022-08-19T06:59:24;10.45;;;9.32;;
12947;SDS011;6539;49.476;8.484;2022-08-19T07:01:54;11.38;;;10.18;;
12947;SDS011;6539;49.476;8.484;2022-08-19T07:04:26;11.65;;;10.48;;
12947;SDS011;6539;49.476;8.484;2022-08-19T07:07:07;13.83;;;9.50;;
12947;SDS011;6539;49.476;8.484;2022-08-19T07:09:38;11.70;;;10.60;;
12947;SDS011;6539;49.476;8.484;2022-08-19T07:12:07;11.63;;;10.45;;
12947;SDS011;6539;49.476;8.484;2022-08-19T07:14:36;11.77;;;10.55;;
12947;SDS011;6539;49.476;8.484;2022-08-19T07:17:04;12.07;;;10.07;;
12947;SDS011;6539;49.476;8.484;2022-08-19T07:19:34;11.00;;;9.90;;
12947;SDS011;6539;49.476;8.484;2022-08-19T07:22:03;12.40;;;10.57;;
12947;SDS011;6539;49.476;8.484;2022-08-19T07:24:34;10.80;;;9.70;;
12947;SDS011;6539;49.476;8.484;2022-08-19T07:27:02;10.05;;;9.15;;
12947;SDS011;6539;49.476;8.484;2022-08-19T07:29:33;13.55;;;10.23;;
12947;SDS011;6539;49.476;8.484;2022-08-19T07:32:02;10.07;;;9.05;;
12947;SDS011;6539;49.476;8.484;2022-08-19T07:34:30;12.13;;;9.13;;
12947;SDS011;6539;49.476;8.484;2022-08-19T07:37:08;9.60;;;8.75;;
12947;SDS011;6539;49.476;8.484;2022-08-19T07:39:35;9.82;;;8.82;;
12947;SDS011;6539;49.476;8.484;2022-08-19T07:42:03;10.23;;;8.68;;
12947;SDS011;6539;49.476;8.484;2022-08-19T07:44:34;8.98;;;8.05;;
12947;SDS011;6539;49.476;8.484;2022-08-19T07:47:03;9.27;;;8.30;;
12947;SDS011;6539;49.476;8.484;2022-08-19T07:49:30;12.18;;;9.50;;
12947;SDS011;6539;49.476;8.484;2022-08-19T07:52:01;11.52;;;8.70;;
12947;SDS011;6539;49.476;8.484;2022-08-19T07:54:34;13.88;;;9.30;;
12947;SDS011;6539;49.476;8.484;2022-08-19T07:57:03;9.85;;;8.90;;
12947;SDS011;6539;49.476;8.484;2022-08-19T07:59:33;7.75;;;6.97;;
12947;SDS011;6539;49.476;8.484;2022-08-19T08:02:00;10.50;;;7.78;;
12947;SDS011;6539;49.476;8.484;2022-08-19T08:04:27;7.57;;;6.88;;
12947;SDS011;6539;49.476;8.484;2022-08-19T08:07:15;10.13;;;9.10;;
12947;SDS011;6539;49.476;8.484;2022-08-19T08:10:00;9.95;;;8.43;;
12947;SDS011;6539;49.476;8.484;2022-08-19T08:12:37;9.90;;;8.27;;
12947;SDS011;6539;49.476;8.484;2022-08-19T08:15:08;9.43;;;8.52;;
12947;SDS011;6539;49.476;8.484;2022-08-19T08:17:44;9.02;;;8.13;;
12947;SDS011;6539;49.476;8.484;2022-08-19T08:20:15;8.85;;;7.95;;
12947;SDS011;6539;49.476;8.484;2022-08-19T08:22:44;9.07;;;8.10;;
12947;SDS011;6539;49.476;8.484;2022-08-19T08:25:33;8.30;;;7.43;;
12947;SDS011;6539;49.476;8.484;2022-08-19T08:28:01;8.35;;;7.55;;
12947;SDS011;6539;49.476;8.484;2022-08-19T08:30:29;10.43;;;7.47;;
12947;SDS011;6539;49.476;8.484;2022-08-19T08:32:57;7.85;;;7.00;;
12947;SDS011;6539;49.476;8.484;2022-08-19T08:35:28;9.20;;;6.63;;
12947;SDS011;6539;49.476;8.484;2022-08-19T08:37:54;9.60;;;7.30;;
12947;SDS011;6539;49.476;8.484;2022-08-19T08:43:20;6.18;;;5.57;;
12947;SDS011;6539;49.476;8.484;2022-08-19T08:45:56;7.55;;;5.95;;
12947;SDS011;6539;49.476;8.484;2022-08-19T08:48:34;7.28;;;5.60;;
12947;SDS011;6539;49.476;8.484;2022-08-19T08:51:05;6.10;;;5.50;;
12947;SDS011;6539;49.476;8.484;2022-08-19T08:53:40;5.85;;;5.25;;
12947;SDS011;6539;49.476;8.484;2022-08-19T08:56:10;6.10;;;5.53;;
12947;SDS011;6539;49.476;8.484;2022-08-19T09:01:37;8.55;;;5.30;;
12947;SDS011;6539;49.476;8.484;2022-08-19T09:04:06;5.35;;;4.95;;
12947;SDS011;6539;49.476;8.484;2022-08-19T09:06:40;6.00;;;5.20;;
12947;SDS011;6539;49.476;8.484;2022-08-19T09:09:42;9.57;;;7.07;;
12947;SDS011;6539;49.476;8.484;2022-08-19T09:15:05;6.35;;;5.80;;
12947;SDS011;6539;49.476;8.484;2022-08-19T09:17:38;7.15;;;6.18;;
12947;SDS011;6539;49.476;8.484;2022-08-19T09:20:21;8.10;;;6.05;;
12947;SDS011;6539;49.476;8.484;2022-08-19T09:22:49;7.50;;;5.88;;
12947;SDS011;6539;49.476;8.484;2022-08-19T09:25:16;6.63;;;5.72;;
12947;SDS011;6539;49.476;8.484;2022-08-19T09:27:47;5.70;;;4.63;;
12947;SDS011;6539;49.476;8.484;2022-08-19T09:30:18;7.15;;;6.43;;
12947;SDS011;6539;49.476;8.484;2022-08-19T09:32:51;6.40;;;5.65;;
12947;SDS011;6539;49.476;8.484;2022-08-19T09:35:19;8.27;;;6.10;;
12947;SDS011;6539;49.476;8.484;2022-08-19T09:37:54;7.05;;;5.38;;
12947;SDS011;6539;49.476;8.484;2022-08-19T09:40:27;6.80;;;5.30;;
12947;SDS011;6539;49.476;8.484;2022-08-19T09:42:58;6.28;;;5.47;;
12947;SDS011;6539;49.476;8.484;2022-08-19T09:45:27;10.73;;;6.22;;
12947;SDS011;6539;49.476;8.484;2022-08-19T09:47:54;6.25;;;5.65;;
12947;SDS011;6539;49.476;8.484;2022-08-19T09:50:22;8.35;;;7.47;;
12947;SDS011;6539;49.476;8.484;2022-08-19T09:52:48;8.77;;;6.18;;
12947;SDS011;6539;49.476;8.484;2022-08-19T09:55:19;7.57;;;6.20;;
12947;SDS011;6539;49.476;8.484;2022-08-19T09:57:45;5.95;;;5.30;;
12947;SDS011;6539;49.476;8.484;2022-08-19T10:00:16;6.55;;;5.47;;
12947;SDS011;6539;49.476;8.484;2022-08-19T10:02:42;7.57;;;6.38;;
12947;SDS011;6539;49.476;8.484;2022-08-19T10:05:12;9.10;;;8.18;;
12947;SDS011;6539;49.476;8.484;2022-08-19T10:08:01;7.53;;;6.75;;
12947;SDS011;6539;49.476;8.484;2022-08-19T10:10:27;7.15;;;6.45;;
12947;SDS011;6539;49.476;8.484;2022-08-19T10:12:53;6.05;;;5.03;;
12947;SDS011;6539;49.476;8.484;2022-08-19T10:15:19;6.63;;;6.00;;
12947;SDS011;6539;49.476;8.484;2022-08-19T10:17:48;5.75;;;5.20;;
12947;SDS011;6539;49.476;8.484;2022-08-19T10:20:15;5.65;;;4.90;;
12947;SDS011;6539;49.476;8.484;2022-08-19T10:22:46;7.53;;;5.85;;
12947;SDS011;6539;49.476;8.484;2022-08-19T10:25:12;5.72;;;5.15;;
12947;SDS011;6539;49.476;8.484;2022-08-19T10:27:42;5.45;;;5.00;;
12947;SDS011;6539;49.476;8.484;2022-08-19T10:30:08;6.60;;;5.57;;
12947;SDS011;6539;49.476;8.484;2022-08-19T10:32:35;9.10;;;5.90;;
12947;SDS011;6539;49.476;8.484;2022-08-19T10:35:02;6.78;;;5.93;;
12947;SDS011;6539;49.476;8.484;2022-08-19T10:37:33;7.38;;;6.65;;
12947;SDS011;6539;49.476;8.484;2022-08-19T10:40:03;7.32;;;5.95;;
12947;SDS011;6539;49.476;8.484;2022-08-19T10:42:32;7.55;;;6.90;;
12947;SDS011;6539;49.476;8.484;2022-08-19T10:45:00;7.63;;;6.60;;
12947;SDS011;6539;49.476;8.484;2022-08-19T10:47:30;6.82;;;5.50;;
12947;SDS011;6539;49.476;8.484;2022-08-19T10:49:59;6.57;;;5.85;;
12947;SDS011;6539;49.476;8.484;2022-08-19T10:52:47;8.23;;;7.22;;
12947;SDS011;6539;49.476;8.484;2022-08-19T10:55:15;8.18;;;7.22;;
12947;SDS011;6539;49.476;8.484;2022-08-19T10:58:10;7.20;;;6.53;;
12947;SDS011;6539;49.476;8.484;2022-08-19T11:00:51;6.35;;;5.85;;
12947;SDS011;6539;49.476;8.484;2022-08-19T11:03:22;7.18;;;6.50;;
12947;SDS011;6539;49.476;8.484;2022-08-19T11:05:59;7.18;;;6.47;;
12947;SDS011;6539;49.476;8.484;2022-08-19T11:08:31;8.38;;;6.85;;
12947;SDS011;6539;49.476;8.484;2022-08-19T11:11:00;7.93;;;7.20;;
12947;SDS011;6539;49.476;8.484;2022-08-19T11:13:31;9.20;;;8.30;;
12947;SDS011;6539;49.476;8.484;2022-08-19T11:18:35;8.18;;;7.47;;
12947;SDS011;6539;49.476;8.484;2022-08-19T11:21:32;7.97;;;6.50;;
12947;SDS011;6539;49.476;8.484;2022-08-19T11:24:02;7.13;;;6.22;;
12947;SDS011;6539;49.476;8.484;2022-08-19T11:26:32;7.63;;;6.93;;
12947;SDS011;6539;49.476;8.484;2022-08-19T11:29:03;6.85;;;6.28;;
12947;SDS011;6539;49.476;8.484;2022-08-19T11:31:32;6.85;;;6.18;;
12947;SDS011;6539;49.476;8.484;2022-08-19T11:34:06;7.72;;;5.68;;
12947;SDS011;6539;49.476;8.484;2022-08-19T11:36:40;6.45;;;5.90;;
12947;SDS011;6539;49.476;8.484;2022-08-19T11:39:10;6.82;;;6.22;;
12947;SDS011;6539;49.476;8.484;2022-08-19T11:41:40;7.55;;;5.88;;
12947;SDS011;6539;49.476;8.484;2022-08-19T11:44:12;7.13;;;6.32;;
12947;SDS011;6539;49.476;8.484;2022-08-19T11:46:39;6.47;;;5.75;;
12947;SDS011;6539;49.476;8.484;2022-08-19T11:49:12;7.30;;;6.45;;
12947;SDS011;6539;49.476;8.484;2022-08-19T11:51:41;6.43;;;5.70;;
12947;SDS011;6539;49.476;8.484;2022-08-19T11:54:13;7.20;;;5.90;;
12947;SDS011;6539;49.476;8.484;2022-08-19T11:56:42;6.45;;;5.95;;
12947;SDS011;6539;49.476;8.484;2022-08-19T11:59:10;6.32;;;5.72;;
12947;SDS011;6539;49.476;8.484;2022-08-19T12:01:36;7.53;;;6.43;;
12947;SDS011;6539;49.476;8.484;2022-08-19T12:04:02;6.20;;;5.63;;
12947;SDS011;6539;49.476;8.484;2022-08-19T12:06:32;6.78;;;6.20;;
12947;SDS011;6539;49.476;8.484;2022-08-19T12:09:02;6.35;;;5.75;;
12947;SDS011;6539;49.476;8.484;2022-08-19T12:11:32;8.25;;;5.68;;
12947;SDS011;6539;49.476;8.484;2022-08-19T12:13:58;8.55;;;5.82;;
12947;SDS011;6539;49.476;8.484;2022-08-19T12:16:29;6.43;;;5.93;;
12947;SDS011;6539;49.476;8.484;2022-08-19T12:18:57;5.93;;;5.13;;
12947;SDS011;6539;49.476;8.484;2022-08-19T12:21:29;6.32;;;5.65;;
12947;SDS011;6539;49.476;8.484;2022-08-19T12:24:01;6.00;;;5.35;;
12947;SDS011;6539;49.476;8.484;2022-08-19T12:26:33;6.20;;;5.57;;
12947;SDS011;6539;49.476;8.484;2022-08-19T12:29:02;6.43;;;5.80;;
12947;SDS011;6539;49.476;8.484;2022-08-19T12:31:30;6.68;;;5.10;;
12947;SDS011;6539;49.476;8.484;2022-08-19T12:33:59;5.78;;;5.25;;
12947;SDS011;6539;49.476;8.484;2022-08-19T12:36:27;5.53;;;5.00;;
12947;SDS011;6539;49.476;8.484;2022-08-19T12:38:55;6.15;;;5.55;;
12947;SDS011;6539;49.476;8.484;2022-08-19T12:41:24;5.63;;;5.20;;
12947;SDS011;6539;49.476;8.484;2022-08-19T12:43:50;6.18;;;5.10;;
12947;SDS011;6539;49.476;8.484;2022-08-19T12:46:19;5.68;;;5.28;;
12947;SDS011;6539;49.476;8.484;2022-08-19T12:48:47;5.78;;;5.28;;
12947;SDS011;6539;49.476;8.484;2022-08-19T12:51:17;5.25;;;4.85;;
12947;SDS011;6539;49.476;8.484;2022-08-19T12:53:50;5.15;;;4.70;;
12947;SDS011;6539;49.476;8.484;2022-08-19T12:56:16;5.32;;;4.90;;
12947;SDS011;6539;49.476;8.484;2022-08-19T12:58:43;10.48;;;5.20;;
12947;SDS011;6539;49.476;8.484;2022-08-19T13:01:13;5.68;;;5.18;;
12947;SDS011;6539;49.476;8.484;2022-08-19T13:03:41;5.80;;;4.90;;
12947;SDS011;6539;49.476;8.484;2022-08-19T13:06:10;7.70;;;4.90;;
12947;SDS011;6539;49.476;8.484;2022-08-19T13:08:37;5.80;;;5.07;;
12947;SDS011;6539;49.476;8.484;2022-08-19T13:11:08;5.03;;;4.63;;
12947;SDS011;6539;49.476;8.484;2022-08-19T13:13:40;5.65;;;5.15;;
12947;SDS011;6539;49.476;8.484;2022-08-19T13:16:11;6.05;;;5.45;;
12947;SDS011;6539;49.476;8.484;2022-08-19T13:18:41;5.75;;;5.15;;
12947;SDS011;6539;49.476;8.484;2022-08-19T13:21:17;5.75;;;5.13;;
12947;SDS011;6539;49.476;8.484;2022-08-19T13:23:46;6.90;;;4.85;;
12947;SDS011;6539;49.476;8.484;2022-08-19T13:26:17;6.20;;;5.70;;
12947;SDS011;6539;49.476;8.484;2022-08-19T13:28:46;6.72;;;5.03;;
12947;SDS011;6539;49.476;8.484;2022-08-19T13:31:32;6.20;;;5.10;;
12947;SDS011;6539;49.476;8.484;2022-08-19T13:34:26;5.55;;;5.15;;
12947;SDS011;6539;49.476;8.484;2022-08-19T13:36:58;6.25;;;4.75;;
12947;SDS011;6539;49.476;8.484;2022-08-19T13:39:33;5.35;;;4.88;;
12947;SDS011;6539;49.476;8.484;2022-08-19T13:42:00;6.00;;;5.45;;
12947;SDS011;6539;49.476;8.484;2022-08-19T13:44:29;6.13;;;5.60;;
12947;SDS011;6539;49.476;8.484;2022-08-19T13:46:59;6.38;;;5.57;;
12947;SDS011;6539;49.476;8.484;2022-08-19T13:49:30;5.80;;;5.30;;
12947;SDS011;6539;49.476;8.484;2022-08-19T13:51:57;5.28;;;4.78;;
12947;SDS011;6539;49.476;8.484;2022-08-19T13:54:23;6.18;;;5.57;;
12947;SDS011;6539;49.476;8.484;2022-08-19T13:56:51;5.78;;;5.28;;
12947;SDS011;6539;49.476;8.484;2022-08-19T13:59:17;5.28;;;4.80;;
12947;SDS011;6539;49.476;8.484;2022-08-19T14:01:43;5.60;;;5.10;;
12947;SDS011;6539;49.476;8.484;2022-08-19T14:04:10;6.38;;;4.78;;
12947;SDS011;6539;49.476;8.484;2022-08-19T14:06:36;4.88;;;4.45;;
12947;SDS011;6539;49.476;8.484;2022-08-19T14:09:04;5.20;;;4.80;;
12947;SDS011;6539;49.476;8.484;2022-08-19T14:11:30;5.97;;;4.85;;
12947;SDS011;6539;49.476;8.484;2022-08-19T14:13:58;5.00;;;4.60;;
12947;SDS011;6539;49.476;8.484;2022-08-19T14:16:29;9.13;;;5.15;;
12947;SDS011;6539;49.476;8.484;2022-08-19T14:18:58;6.20;;;4.85;;
12947;SDS011;6539;49.476;8.484;2022-08-19T14:21:24;5.25;;;4.75;;
12947;SDS011;6539;49.476;8.484;2022-08-19T14:23:50;5.55;;;5.05;;
12947;SDS011;6539;49.476;8.484;2022-08-19T14:26:17;4.20;;;3.90;;
12947;SDS011;6539;49.476;8.484;2022-08-19T14:28:45;4.60;;;4.25;;
12947;SDS011;6539;49.476;8.484;2022-08-19T14:31:12;4.18;;;3.88;;
12947;SDS011;6539;49.476;8.484;2022-08-19T14:33:41;3.95;;;3.63;;
12947;SDS011;6539;49.476;8.484;2022-08-19T14:36:09;4.18;;;3.85;;
12947;SDS011;6539;49.476;8.484;2022-08-19T14:38:35;4.65;;;4.25;;
12947;SDS011;6539;49.476;8.484;2022-08-19T14:43:41;5.03;;;3.83;;
12947;SDS011;6539;49.476;8.484;2022-08-19T14:46:11;7.47;;;4.97;;
12947;SDS011;6539;49.476;8.484;2022-08-19T14:48:42;5.32;;;4.20;;
12947;SDS011;6539;49.476;8.484;2022-08-19T14:51:12;5.32;;;4.28;;
12947;SDS011;6539;49.476;8.484;2022-08-19T14:53:44;3.95;;;3.65;;
12947;SDS011;6539;49.476;8.484;2022-08-19T14:56:19;5.10;;;3.70;;
12947;SDS011;6539;49.476;8.484;2022-08-19T14:58:49;3.67;;;3.38;;
12947;SDS011;6539;49.476;8.484;2022-08-19T15:01:16;4.15;;;3.58;;
12947;SDS011;6539;49.476;8.484;2022-08-19T15:03:47;4.30;;;3.90;;
12947;SDS011;6539;49.476;8.484;2022-08-19T15:06:17;4.53;;;4.13;;
12947;SDS011;6539;49.476;8.484;2022-08-19T15:08:49;4.18;;;3.78;;
12947;SDS011;6539;49.476;8.484;2022-08-19T15:11:19;4.75;;;4.18;;
12947;SDS011;6539;49.476;8.484;2022-08-19T15:13:50;3.80;;;3.50;;
12947;SDS011;6539;49.476;8.484;2022-08-19T15:16:16;6.00;;;5.40;;
12947;SDS011;6539;49.476;8.484;2022-08-19T15:18:46;4.60;;;4.20;;
12947;SDS011;6539;49.476;8.484;2022-08-19T15:21:19;7.22;;;6.30;;